Time;durP1;ratioP1;P1;durP2;ratioP2;P2;SDS_P1;SDS_P2;PMS_P1;PMS_P2;Temp;Humidity;BMP_temperature;BMP_pressure;BME280_temperature;BME280_humidity;BME280_pressure;Samples;Min_cycle;Max_cycle;Signal;HPM_P1;HPM_P2
2022/01/16 00:01:33;;;;;;;;;4.50;1.75;;;;;1.49;67.86;102283.41;5070321;28;45300;-88
2022/01/16 00:04:11;;;;;;;;;2.75;1.75;;;;;1.25;68.22;102232.13;5079077;28;47362;-89
2022/01/16 00:06:38;;;;;;;;;4.50;3.50;;;;;1.03;68.23;102225.47;5052806;28;44906;-88
2022/01/16 00:09:04;;;;;;;;;5.50;2.75;;;;;1.03;68.20;102255.34;5058460;28;44748;-89
2022/01/16 00:11:31;;;;;;;;;1.50;1.50;;;;;0.62;68.62;102196.91;5061235;28;45442;-90
2022/01/16 00:13:56;;;;;;;;;4.50;3.00;;;;;0.94;68.30;102233.38;5085612;28;47365;-89
2022/01/16 00:16:23;;;;;;;;;7.00;4.25;;;;;1.24;68.87;102291.91;5066394;28;44700;-89
2022/01/16 00:18:49;;;;;;;;;2.00;2.00;;;;;0.79;68.33;102211.78;5067087;28;45243;-88
2022/01/16 00:21:36;;;;;;;;;6.00;3.00;;;;;1.41;68.25;102277.72;5086507;27;45474;-88
2022/01/16 00:24:03;;;;;;;;;2.00;1.75;;;;;1.41;68.90;102287.97;5067690;28;47027;-90
2022/01/16 00:26:28;;;;;;;;;4.50;2.50;;;;;1.20;68.04;102264.25;5067656;27;45841;-88
2022/01/16 00:28:54;;;;;;;;;1.00;1.00;;;;;0.93;68.85;102218.78;5070767;28;45435;-87
2022/01/16 00:31:23;;;;;;;;;3.50;3.50;;;;;1.52;68.38;102310.19;5082356;27;45443;-89
2022/01/16 00:33:49;;;;;;;;;8.75;5.50;;;;;1.42;67.89;102314.56;5100850;27;48172;-89
2022/01/16 00:36:18;;;;;;;;;4.50;4.50;;;;;1.43;68.08;102329.16;5073736;28;45345;-89
2022/01/16 00:38:46;;;;;;;;;3.00;3.00;;;;;1.24;67.47;102294.47;5068836;28;45347;-89
2022/01/16 00:41:12;;;;;;;;;7.00;5.50;;;;;1.55;67.40;102299.25;5054376;28;45657;-89
2022/01/16 00:43:38;;;;;;;;;8.50;3.25;;;;;1.08;67.60;102198.47;5064498;28;47033;-89
2022/01/16 00:46:03;;;;;;;;;6.00;3.25;;;;;1.55;67.02;102288.06;5063712;28;45387;-88
2022/01/16 00:48:29;;;;;;;;;7.00;4.75;;;;;1.43;67.68;102270.13;5071888;28;45428;-89
2022/01/16 00:50:54;;;;;;;;;4.50;2.50;;;;;1.33;67.53;102263.47;5072925;28;45296;-89
2022/01/16 00:53:20;;;;;;;;;3.00;3.00;;;;;1.42;67.79;102305.19;5091767;28;45527;-89
2022/01/16 00:55:45;;;;;;;;;6.00;4.25;;;;;1.01;67.34;102240.75;5088428;28;45394;-88
2022/01/16 00:58:11;;;;;;;;;2.75;2.25;;;;;1.29;67.68;102279.44;5084657;28;45623;-88
2022/01/16 01:00:37;;;;;;;;;7.50;5.25;;;;;1.45;67.65;102317.34;5087016;28;45551;-88
2022/01/16 01:03:05;;;;;;;;;6.25;4.25;;;;;1.39;67.45;102371.69;5094841;28;46683;-86
2022/01/16 01:05:32;;;;;;;;;2.00;2.00;;;;;1.08;67.12;102292.50;5110117;27;44813;-88
2022/01/16 01:07:57;;;;;;;;;5.00;1.75;;;;;1.19;67.66;102331.75;5108128;27;45349;-88
2022/01/16 01:10:31;;;;;;;;;4.50;2.75;;;;;0.86;67.37;102262.72;5111459;27;45433;-87
2022/01/16 01:13:07;;;;;;;;;4.75;3.75;;;;;1.28;67.56;102352.06;5086882;28;47312;-88
2022/01/16 01:15:42;;;;;;;;;4.00;2.50;;;;;1.33;67.32;102332.75;5052457;28;45375;-87
2022/01/16 01:18:08;;;;;;;;;3.50;3.50;;;;;1.48;66.96;102356.06;5061486;28;45444;-88
2022/01/16 01:20:35;;;;;;;;;2.00;1.25;;;;;1.09;67.49;102276.31;5070964;28;45427;-88
2022/01/16 01:23:00;;;;;;;;;2.75;2.75;;;;;1.55;67.52;102321.44;5070029;28;47252;-88
2022/01/16 01:25:25;;;;;;;;;2.25;2.25;;;;;1.35;67.44;102228.53;5056278;28;45354;-88
2022/01/16 01:27:51;;;;;;;;;3.75;3.75;;;;;1.51;67.17;102238.22;5068046;28;45356;-88
2022/01/16 01:30:19;;;;;;;;;3.00;3.00;;;;;1.51;67.38;102240.78;5072620;28;45232;-87
2022/01/16 01:32:47;;;;;;;;;2.50;1.00;;;;;0.92;67.29;102136.63;5079943;28;47389;-88
2022/01/16 01:35:15;;;;;;;;;3.50;2.25;;;;;1.29;67.39;102225.53;5062955;28;44863;-88
2022/01/16 01:37:41;;;;;;;;;2.75;2.75;;;;;1.41;68.57;102271.72;5053271;28;45478;-88
2022/01/16 01:40:10;;;;;;;;;3.00;2.00;;;;;1.56;67.79;102310.41;5048022;28;44865;-88
2022/01/16 01:42:44;;;;;;;;;2.25;0.25;;;;;1.45;68.38;102318.25;5033543;28;47412;-90
2022/01/16 01:53:23;;;;;;;;;6.75;4.50;;;;;1.40;69.14;102340.09;5066441;28;45760;-87
2022/01/16 01:55:49;;;;;;;;;3.00;2.00;;;;;1.37;69.08;102365.53;5066308;28;45885;-87
2022/01/16 01:58:15;;;;;;;;;3.00;3.00;;;;;0.87;69.17;102265.41;5049081;28;45357;-87
2022/01/16 02:00:42;;;;;;;;;5.50;3.75;;;;;1.25;69.38;102353.63;5050844;28;45573;-88
2022/01/16 02:03:14;;;;;;;;;4.50;3.00;;;;;1.37;69.23;102383.50;5064252;28;45395;-88
2022/01/16 02:05:42;;;;;;;;;4.00;3.00;;;;;1.44;68.72;102387.44;5064781;28;45446;-88
2022/01/16 02:08:08;;;;;;;;;2.00;2.00;;;;;1.18;69.08;102345.34;5048864;28;45251;-87
2022/01/16 02:10:36;;;;;;;;;6.00;3.00;;;;;1.27;68.69;102387.09;5046757;28;45400;-88
2022/01/16 02:13:05;;;;;;;;;3.00;1.50;;;;;1.33;69.20;102394.34;5046075;28;47119;-88
2022/01/16 02:27:54;;;;;;;;;1.00;1.00;;;;;1.37;69.39;102404.03;5048221;28;45722;-88
2022/01/16 02:31:59;;;;;;;;;3.00;2.25;;;;;1.61;69.58;102401.47;5064624;28;45352;-89
2022/01/16 02:34:31;;;;;;;;;1.75;1.75;;;;;1.46;68.87;102360.19;5047724;28;47477;-87
2022/01/16 02:37:03;;;;;;;;;4.50;3.00;;;;;1.60;69.55;102367.22;5068192;28;45589;-87
2022/01/16 02:39:38;;;;;;;;;8.50;2.00;;;;;1.60;69.33;102354.38;5062421;28;45355;-85
2022/01/16 02:42:17;;;;;;;;;3.50;3.00;;;;;1.64;68.97;102369.22;5070660;28;45271;-86
2022/01/16 02:45:03;;;;;;;;;3.75;3.75;;;;;1.25;69.38;102315.13;5066446;28;47339;-88
2022/01/16 02:47:41;;;;;;;;;2.75;2.75;;;;;1.07;68.78;102275.31;5064311;28;45473;-86
2022/01/16 02:50:22;;;;;;;;;2.00;2.00;;;;;1.74;69.05;102387.84;5063373;28;45259;-87
2022/01/16 02:53:10;;;;;;;;;3.00;1.00;;;;;1.71;69.66;102351.69;5065225;28;45485;-87
2022/01/16 02:55:49;;;;;;;;;5.00;1.00;;;;;1.80;69.18;102369.44;5063307;28;47976;-87
2022/01/16 02:58:30;;;;;;;;;3.00;2.75;;;;;0.65;69.03;102144.09;5064157;28;45365;-86
2022/01/16 03:01:14;;;;;;;;;3.50;2.00;;;;;1.17;69.33;102226.47;5065009;28;45272;-87
2022/01/16 03:03:40;;;;;;;;;2.25;2.25;;;;;1.93;69.04;102348.06;5065423;28;45811;-87
2022/01/16 03:06:05;;;;;;;;;3.75;3.50;;;;;1.94;68.39;102358.44;5067543;28;46990;-87
2022/01/16 03:08:31;;;;;;;;;1.50;1.00;;;;;1.85;69.07;102345.84;5071047;28;45248;-88
2022/01/16 03:13:31;;;;;;;;;2.75;2.00;;;;;1.57;69.34;102310.53;5108633;27;44852;-86
2022/01/16 03:15:57;;;;;;;;;2.00;1.25;;;;;1.21;69.85;102277.22;5078421;27;47368;-87
2022/01/16 03:23:33;;;;;;;;;1.00;1.00;;;;;1.57;69.62;102314.75;5085922;28;45275;-88
2022/01/16 03:25:59;;;;;;;;;3.00;3.00;;;;;1.61;69.51;102303.91;5066556;28;47653;-87
2022/01/16 03:28:25;;;;;;;;;2.75;1.50;;;;;1.88;69.78;102340.03;5083206;28;45395;-88
2022/01/16 03:30:53;;;;;;;;;2.50;2.50;;;;;1.81;70.06;102333.56;5061080;28;45433;-88
2022/01/16 03:33:20;;;;;;;;;2.00;1.50;;;;;1.87;69.50;102333.13;5063432;28;45470;-87
2022/01/16 03:35:46;;;;;;;;;1.75;1.00;;;;;2.00;69.50;102340.91;5096023;27;45461;-88
2022/01/16 03:38:12;;;;;;;;;3.00;3.00;;;;;2.03;69.37;102343.66;5084771;27;45755;-86
2022/01/16 03:40:37;;;;;;;;;1.75;1.75;;;;;2.03;69.71;102345.34;5087305;27;45455;-87
2022/01/16 03:43:14;;;;;;;;;2.75;1.75;;;;;2.01;69.55;102332.41;5083265;27;45479;-88
2022/01/16 03:45:46;;;;;;;;;2.00;2.00;;;;;2.09;69.26;102342.31;5068482;28;47147;-88
2022/01/16 03:48:14;;;;;;;;;5.75;3.50;;;;;1.98;69.65;102313.31;5103737;27;45216;-88
2022/01/16 03:50:39;;;;;;;;;1.75;1.75;;;;;2.22;69.17;102333.78;5085872;27;45349;-89
2022/01/16 03:53:05;;;;;;;;;8.25;6.00;;;;;1.92;69.69;102290.66;5085998;27;45286;-88
2022/01/16 03:55:32;;;;;;;;;3.25;2.25;;;;;2.23;69.14;102335.53;5086824;27;47200;-88
2022/01/16 03:57:58;;;;;;;;;6.25;6.25;;;;;2.19;68.79;102320.72;5086775;27;45327;-88
2022/01/16 04:00:24;;;;;;;;;5.00;2.75;;;;;2.01;69.40;102290.41;5102824;27;45471;-87
2022/01/16 04:02:49;;;;;;;;;3.25;2.50;;;;;2.30;68.66;102342.03;5085907;27;45440;-88
2022/01/16 04:05:15;;;;;;;;;5.00;3.50;;;;;2.08;68.96;102309.72;5099113;27;47125;-87
2022/01/16 04:07:40;;;;;;;;;3.00;3.00;;;;;1.91;68.99;102291.44;5119592;27;45474;-87
2022/01/16 04:10:08;;;;;;;;;4.00;3.00;;;;;2.16;68.71;102323.97;5120529;27;45251;-87
2022/01/16 04:12:37;;;;;;;;;2.50;1.00;;;;;2.29;68.77;102351.41;5088701;27;45379;-88
2022/01/16 04:17:27;;;;;;;;;3.50;2.00;;;;;1.66;68.73;102278.56;5103394;27;45396;-88
2022/01/16 04:19:53;;;;;;;;;3.25;2.25;;;;;2.14;69.08;102382.06;5085330;27;45347;-88
2022/01/16 04:22:19;;;;;;;;;9.50;4.00;;;;;1.64;69.02;102293.88;5104107;27;45480;-88
2022/01/16 04:24:45;;;;;;;;;6.00;3.00;;;;;1.76;69.37;102323.00;5086789;27;48697;-88
2022/01/16 04:27:13;;;;;;;;;4.00;2.50;;;;;1.93;69.19;102348.94;5105764;27;45318;-88
2022/01/16 04:29:42;;;;;;;;;3.25;1.25;;;;;2.11;69.44;102382.75;5122239;27;45408;-87
2022/01/16 04:32:08;;;;;;;;;1.25;1.25;;;;;1.65;69.13;102311.03;5104678;27;44983;-86
2022/01/16 04:34:34;;;;;;;;;4.25;3.50;;;;;2.07;69.08;102379.84;5097933;27;45453;-88
2022/01/16 04:36:59;;;;;;;;;2.00;2.00;;;;;1.99;69.80;102385.34;5064238;28;45880;-88
2022/01/16 04:39:31;;;;;;;;;2.00;2.00;;;;;2.17;68.81;102425.09;5082513;28;45492;-88
2022/01/16 04:44:41;;;;;;;;;7.00;3.25;;;;;2.12;68.80;102409.34;5083953;28;45433;-88
2022/01/16 04:47:07;;;;;;;;;3.50;3.50;;;;;2.12;69.46;102404.19;5085567;28;45416;-87
2022/01/16 04:49:32;;;;;;;;;4.50;3.00;;;;;1.89;69.30;102357.22;5084666;28;44916;-88
2022/01/16 04:51:57;;;;;;;;;3.75;3.25;;;;;1.66;69.12;102324.78;5089087;28;44905;-88
2022/01/16 04:54:24;;;;;;;;;10.00;5.00;;;;;1.93;69.39;102364.34;5096207;27;47379;-88
2022/01/16 04:56:50;;;;;;;;;4.00;2.00;;;;;1.82;69.06;102355.91;5056337;28;45813;-88
2022/01/16 04:59:15;;;;;;;;;4.50;2.75;;;;;1.77;68.88;102355.59;5025548;28;45353;-87
2022/01/16 05:01:41;;;;;;;;;6.25;3.75;;;;;1.63;68.84;102346.00;5027406;28;45590;-87
2022/01/16 05:04:06;;;;;;;;;4.75;2.50;;;;;2.09;69.69;102419.41;5032117;28;47176;-87
2022/01/16 05:06:31;;;;;;;;;2.50;2.00;;;;;1.61;69.58;102340.75;5045006;28;45376;-87
2022/01/16 05:08:57;;;;;;;;;3.75;3.00;;;;;2.05;69.54;102414.84;5085972;28;44654;-87
2022/01/16 05:11:25;;;;;;;;;5.25;2.75;;;;;1.66;69.93;102353.94;5087505;28;45359;-88
2022/01/16 05:19:19;;;;;;;;;2.00;2.00;;;;;1.71;69.84;102379.94;5081251;28;45316;-88
2022/01/16 05:21:44;;;;;;;;;5.25;3.00;;;;;1.74;69.98;102386.16;5082086;28;45307;-87
2022/01/16 05:24:11;;;;;;;;;2.50;2.50;;;;;1.95;69.83;102432.16;5097788;28;45765;-88
2022/01/16 05:26:44;;;;;;;;;1.50;1.50;;;;;1.75;70.09;102413.63;5077836;28;45738;-87
2022/01/16 05:29:10;;;;;;;;;3.00;3.00;;;;;1.87;70.24;102441.88;5098394;28;44754;-88
2022/01/16 05:31:44;;;;;;;;;2.00;2.00;;;;;1.77;70.42;102426.59;5081627;28;44867;-88
2022/01/16 05:34:09;;;;;;;;;3.25;1.75;;;;;1.87;69.97;102458.97;5069302;28;47868;-86
2022/01/16 05:36:35;;;;;;;;;2.00;2.00;;;;;1.42;70.68;102386.41;5087186;28;45381;-89
2022/01/16 05:39:00;;;;;;;;;7.50;3.25;;;;;1.32;71.14;102395.13;5073222;28;45280;-87
2022/01/16 05:41:25;;;;;;;;;2.00;1.50;;;;;1.28;70.63;102399.13;5062926;28;45300;-88
2022/01/16 05:43:52;;;;;;;;;0.50;0.00;;;;;1.63;71.04;102457.28;5045711;28;45430;-88
2022/01/16 05:46:18;;;;;;;;;1.50;0.50;;;;;1.43;71.26;102393.31;5045176;28;45323;-87
2022/01/16 05:48:43;;;;;;;;;2.25;2.25;;;;;1.37;71.87;102388.63;5044855;28;45486;-88
2022/01/16 05:51:08;;;;;;;;;0.75;0.75;;;;;1.66;71.13;102440.31;5045422;28;45681;-87
2022/01/16 05:53:35;;;;;;;;;0.75;0.75;;;;;1.51;70.91;102403.38;5048499;28;45704;-86
2022/01/16 05:56:00;;;;;;;;;2.75;1.75;;;;;1.77;70.77;102459.97;5050175;28;44938;-88
2022/01/16 05:58:25;;;;;;;;;1.00;1.00;;;;;1.79;71.41;102460.97;5079863;28;45320;-87
2022/01/16 06:00:51;;;;;;;;;5.50;3.75;;;;;1.45;71.69;102390.13;5065847;28;45602;-87
2022/01/16 06:03:16;;;;;;;;;4.50;3.00;;;;;1.87;70.57;102454.72;5086436;28;47307;-88
2022/01/16 06:05:42;;;;;;;;;2.00;2.00;;;;;1.92;71.16;102442.22;5066755;28;45434;-87
2022/01/16 06:08:11;;;;;;;;;0.25;0.25;;;;;1.97;70.84;102435.75;5048409;28;45359;-87
2022/01/16 06:10:36;;;;;;;;;1.75;1.75;;;;;2.01;71.14;102458.28;5048265;28;45616;-88
2022/01/16 06:13:04;;;;;;;;;1.00;1.00;;;;;1.57;71.03;102410.66;5063499;28;45524;-88
2022/01/16 06:15:29;;;;;;;;;1.00;1.00;;;;;1.90;71.11;102492.59;5047493;28;45872;-87
2022/01/16 06:17:55;;;;;;;;;5.25;1.00;;;;;1.82;71.10;102492.03;5051733;28;45283;-87
2022/01/16 06:20:20;;;;;;;;;2.00;0.75;;;;;1.52;71.06;102447.91;5071876;28;45457;-88
2022/01/16 06:22:46;;;;;;;;;3.50;0.50;;;;;1.56;71.16;102449.91;5034290;28;47135;-87
2022/01/16 06:25:12;;;;;;;;;1.00;1.00;;;;;1.80;71.32;102487.56;5065214;28;45365;-87
2022/01/16 06:27:38;;;;;;;;;4.00;1.00;;;;;1.79;71.07;102485.75;5076743;28;45395;-88
2022/01/16 06:30:05;;;;;;;;;0.25;0.25;;;;;1.64;71.08;102471.03;5081824;28;45552;-87
2022/01/16 06:32:31;;;;;;;;;1.25;1.25;;;;;1.46;71.25;102435.53;5079620;28;47087;-88
2022/01/16 06:34:56;;;;;;;;;2.00;1.00;;;;;1.43;71.37;102440.44;5044229;28;45670;-87
2022/01/16 06:37:21;;;;;;;;;3.75;1.00;;;;;1.68;71.35;102483.31;5068716;28;45291;-88
2022/01/16 06:39:47;;;;;;;;;1.25;1.25;;;;;1.76;71.58;102494.16;5076099;28;44782;-87
2022/01/16 06:42:12;;;;;;;;;2.25;2.25;;;;;1.55;71.42;102472.91;5046681;28;48404;-87
2022/01/16 06:44:38;;;;;;;;;0.00;0.00;;;;;1.73;71.37;102504.19;5047171;28;45780;-86
2022/01/16 06:47:03;;;;;;;;;0.00;0.00;;;;;1.50;72.32;102452.06;5048927;28;45506;-88
2022/01/16 06:49:29;;;;;;;;;2.00;0.00;;;;;1.80;72.00;102495.28;5046585;28;45558;-86
2022/01/16 06:51:54;;;;;;;;;2.00;1.00;;;;;1.71;71.19;102483.53;5045847;28;47917;-87
2022/01/16 06:54:20;;;;;;;;;1.50;1.00;;;;;1.82;71.22;102497.16;5046573;28;45514;-87
2022/01/16 06:56:45;;;;;;;;;0.75;0.00;;;;;1.76;71.39;102495.03;5064130;28;45426;-87
2022/01/16 06:59:10;;;;;;;;;0.00;0.00;;;;;1.64;71.59;102464.22;5058481;28;45387;-90
2022/01/16 07:01:36;;;;;;;;;2.00;2.00;;;;;1.72;71.71;102476.72;5037202;28;48169;-85
2022/01/16 07:04:01;;;;;;;;;2.50;0.50;;;;;2.08;70.78;102536.69;5054904;28;45507;-88
2022/01/16 07:06:26;;;;;;;;;4.50;2.00;;;;;1.86;71.01;102493.13;5061703;28;45616;-87
2022/01/16 07:08:52;;;;;;;;;1.00;1.00;;;;;1.98;71.10;102513.69;5045176;28;45387;-89
2022/01/16 07:11:17;;;;;;;;;1.25;1.25;;;;;1.98;71.21;102518.81;5045537;28;47184;-86
2022/01/16 07:13:43;;;;;;;;;2.00;0.25;;;;;1.88;71.25;102509.56;5047495;28;45371;-87
2022/01/16 07:16:09;;;;;;;;;3.75;2.00;;;;;2.02;71.33;102521.72;5044901;28;45496;-86
2022/01/16 07:18:34;;;;;;;;;0.00;0.00;;;;;2.18;71.52;102535.69;5064697;28;45301;-86
2022/01/16 07:21:00;;;;;;;;;2.50;2.00;;;;;2.21;71.23;102545.31;5050604;28;48547;-86
2022/01/16 07:23:25;;;;;;;;;2.00;2.00;;;;;2.21;71.46;102530.78;5033718;28;45350;-86
2022/01/16 07:25:52;;;;;;;;;1.75;0.00;;;;;2.28;71.09;102532.09;5051900;28;45385;-86
2022/01/16 07:28:19;;;;;;;;;0.00;0.00;;;;;2.30;70.84;102557.91;5032173;28;45477;-86
2022/01/16 07:30:45;;;;;;;;;2.00;0.25;;;;;2.10;71.24;102532.56;5037156;28;47726;-86
2022/01/16 07:33:10;;;;;;;;;0.50;0.50;;;;;2.24;71.07;102551.53;5055017;28;45377;-86
2022/01/16 07:35:38;;;;;;;;;0.75;0.00;;;;;2.27;71.13;102553.47;5038558;28;45505;-86
2022/01/16 07:38:06;;;;;;;;;3.75;1.50;;;;;2.44;70.83;102566.59;5065538;28;44789;-86
2022/01/16 07:40:32;;;;;;;;;0.00;0.00;;;;;2.22;70.86;102534.22;5064462;28;47364;-86
2022/01/16 07:42:59;;;;;;;;;1.00;1.00;;;;;2.23;70.52;102554.91;5043957;28;45806;-88
2022/01/16 07:45:24;;;;;;;;;1.33;0.00;;;;;2.34;70.23;102570.19;5066325;28;45544;-88
2022/01/16 07:47:49;;;;;;;;;1.75;1.75;;;;;2.25;70.59;102555.00;5049433;28;45419;-85
2022/01/16 07:50:16;;;;;;;;;1.75;1.75;;;;;2.26;70.49;102549.97;5044612;28;46920;-87
2022/01/16 07:52:42;;;;;;;;;1.75;1.75;;;;;2.09;70.31;102512.81;5043229;28;45543;-86
2022/01/16 07:55:08;;;;;;;;;2.00;2.00;;;;;2.27;70.61;102538.91;5069415;28;45611;-84
2022/01/16 07:57:33;;;;;;;;;1.25;1.25;;;;;2.42;70.89;102558.78;5057510;28;45396;-86
2022/01/16 07:59:59;;;;;;;;;2.00;1.75;;;;;2.31;70.94;102531.41;5062510;28;48004;-87
2022/01/16 08:02:24;;;;;;;;;0.75;0.75;;;;;2.59;70.48;102569.38;5081291;28;45571;-90
2022/01/16 08:04:49;;;;;;;;;0.25;0.25;;;;;1.99;70.76;102448.69;5069612;28;45406;-88
2022/01/16 08:07:15;;;;;;;;;2.00;0.25;;;;;2.55;70.47;102531.38;5072074;28;44915;-87
2022/01/16 08:09:41;;;;;;;;;0.75;0.75;;;;;2.56;70.30;102525.44;5098727;28;45173;-85
2022/01/16 08:12:07;;;;;;;;;7.25;2.75;;;;;2.53;69.93;102518.41;5056049;28;44927;-87
2022/01/16 08:14:34;;;;;;;;;1.00;1.00;;;;;2.72;70.34;102553.13;5062837;28;45504;-85
2022/01/16 08:17:00;;;;;;;;;3.50;1.50;;;;;2.71;70.21;102565.13;5060339;28;45591;-84
2022/01/16 08:19:29;;;;;;;;;0.00;0.00;;;;;2.74;70.94;102570.47;5062090;28;45442;-87
2022/01/16 08:21:55;;;;;;;;;2.00;0.50;;;;;2.76;70.64;102573.16;5046723;28;46348;-86
2022/01/16 08:24:21;;;;;;;;;2.25;1.00;;;;;2.61;70.07;102531.81;5064997;28;45759;-85
2022/01/16 08:26:50;;;;;;;;;2.00;1.75;;;;;2.71;70.42;102552.25;5052532;28;45661;-85
2022/01/16 08:29:15;;;;;;;;;1.75;1.00;;;;;2.25;70.22;102465.97;5068731;28;45603;-86
2022/01/16 08:31:41;;;;;;;;;1.00;1.00;;;;;2.38;70.73;102498.56;5051117;28;44893;-85
2022/01/16 08:34:06;;;;;;;;;3.00;1.00;;;;;1.96;70.01;102417.66;5052611;28;45396;-85
2022/01/16 08:36:32;;;;;;;;;3.00;0.25;;;;;2.37;70.41;102462.47;5076570;28;45553;-84
2022/01/16 08:38:58;;;;;;;;;2.25;1.00;;;;;2.25;70.36;102421.38;5068453;28;47071;-85
2022/01/16 08:41:24;;;;;;;;;3.50;1.25;;;;;2.79;70.33;102520.22;5079660;28;45948;-85
2022/01/16 08:43:51;;;;;;;;;3.00;1.00;;;;;2.43;70.33;102447.47;5058373;28;45727;-87
2022/01/16 08:46:17;;;;;;;;;1.00;1.00;;;;;3.04;69.72;102562.22;5063371;28;45577;-89
2022/01/16 08:48:42;;;;;;;;;2.25;1.50;;;;;2.22;70.00;102426.28;5068084;27;47810;-88
2022/01/16 08:51:08;;;;;;;;;0.25;0.25;;;;;2.92;70.56;102545.13;5088199;27;46498;-81
2022/01/16 08:53:34;;;;;;;;;1.00;1.00;;;;;2.27;71.07;102436.09;5076656;28;45793;-85
2022/01/16 08:56:00;;;;;;;;;2.00;0.25;;;;;3.11;70.14;102572.16;5079853;28;45477;-81
2022/01/16 08:58:26;;;;;;;;;1.00;1.00;;;;;3.20;70.07;102584.75;5080580;28;45512;-80
2022/01/16 09:00:52;;;;;;;;;1.75;1.00;;;;;3.27;70.69;102592.13;5076782;28;45831;-79
2022/01/16 09:03:20;;;;;;;;;0.75;0.75;;;;;3.31;70.28;102600.94;5051165;28;45438;-86
2022/01/16 09:05:47;;;;;;;;;1.00;0.25;;;;;3.21;70.07;102581.38;5068857;28;45478;-79
2022/01/16 09:08:14;;;;;;;;;3.25;2.75;;;;;3.33;69.95;102607.09;5066991;28;45525;-79
2022/01/16 09:10:41;;;;;;;;;5.50;1.00;;;;;3.34;69.73;102601.13;5068448;28;45506;-80
2022/01/16 09:13:11;;;;;;;;;2.00;2.00;;;;;3.16;69.84;102562.19;5072910;28;45381;-88
2022/01/16 09:15:38;;;;;;;;;2.50;2.50;;;;;3.42;70.11;102600.00;5081102;28;45470;-86
2022/01/16 09:18:04;;;;;;;;;2.00;2.00;;;;;3.27;70.06;102545.78;5051696;28;47709;-85
2022/01/16 09:20:30;;;;;;;;;2.00;0.50;;;;;3.44;69.58;102569.19;5065497;28;45927;-84
2022/01/16 09:22:55;;;;;;;;;3.75;2.25;;;;;3.35;69.87;102553.13;5076716;27;45686;-84
2022/01/16 09:25:22;;;;;;;;;6.25;1.75;;;;;2.98;69.82;102518.94;5076475;28;45777;-84
2022/01/16 09:27:48;;;;;;;;;2.50;2.00;;;;;3.46;69.73;102607.94;5085294;28;45791;-81
2022/01/16 09:30:14;;;;;;;;;3.00;1.50;;;;;3.59;69.62;102626.00;5082630;27;45405;-80
2022/01/16 09:32:40;;;;;;;;;4.00;1.25;;;;;3.46;69.28;102598.50;5099464;27;45664;-84
2022/01/16 09:35:07;;;;;;;;;0.50;0.50;;;;;3.40;69.48;102591.25;5088984;28;45343;-87
2022/01/16 09:37:33;;;;;;;;;3.75;2.00;;;;;3.33;69.67;102564.97;5071931;28;45372;-84
2022/01/16 09:39:59;;;;;;;;;3.50;1.75;;;;;3.59;69.89;102563.28;5046291;28;45363;-81
2022/01/16 09:42:25;;;;;;;;;1.75;1.00;;;;;3.97;69.53;102624.22;5052231;28;45368;-83
2022/01/16 09:44:51;;;;;;;;;0.25;0.25;;;;;3.88;68.61;102606.44;5047955;28;45532;-80
2022/01/16 09:47:17;;;;;;;;;0.75;0.75;;;;;3.83;69.12;102601.78;5071536;28;45919;-85
2022/01/16 09:49:43;;;;;;;;;1.00;1.00;;;;;3.59;68.67;102571.91;5076751;28;45375;-81
2022/01/16 09:52:09;;;;;;;;;4.00;1.00;;;;;3.82;68.67;102615.47;5063331;28;45383;-85
2022/01/16 09:54:38;;;;;;;;;2.00;1.75;;;;;3.74;68.90;102600.38;5078468;28;45030;-83
2022/01/16 09:57:05;;;;;;;;;1.25;1.00;;;;;3.47;69.43;102543.66;5088201;28;46807;-82
2022/01/16 09:59:31;;;;;;;;;1.00;1.00;;;;;3.78;68.74;102566.31;5087562;28;45391;-83
2022/01/16 10:01:57;;;;;;;;;1.00;1.00;;;;;4.41;68.97;102634.78;5083925;28;45522;-82
2022/01/16 10:04:30;;;;;;;;;2.00;2.00;;;;;4.65;68.21;102614.78;5050870;28;45363;-84
2022/01/16 10:06:58;;;;;;;;;1.00;1.00;;;;;4.13;67.98;102516.94;5037136;28;46928;-85
2022/01/16 10:09:23;;;;;;;;;3.00;3.00;;;;;4.81;67.56;102621.81;5050490;28;45375;-85
2022/01/16 10:11:58;;;;;;;;;2.75;2.25;;;;;4.42;66.81;102559.16;5070480;28;45431;-82
2022/01/16 10:14:34;;;;;;;;;2.75;1.00;;;;;4.28;67.32;102561.75;5066595;28;45530;-84
2022/01/16 10:17:09;;;;;;;;;3.25;2.00;;;;;4.11;66.60;102555.53;5055660;28;47682;-84
2022/01/16 10:19:35;;;;;;;;;2.25;1.00;;;;;4.24;66.95;102587.25;5062378;28;45410;-82
2022/01/16 10:22:06;;;;;;;;;2.00;1.00;;;;;3.82;67.35;102540.75;5044510;28;45521;-83
2022/01/16 10:24:34;;;;;;;;;1.00;1.00;;;;;3.91;67.83;102569.69;5074350;28;45571;-85
2022/01/16 10:27:08;;;;;;;;;3.75;2.50;;;;;4.36;67.24;102630.97;5072141;28;45424;-81
2022/01/16 10:29:51;;;;;;;;;1.25;1.25;;;;;4.13;67.64;102569.41;5064075;28;45377;-82
2022/01/16 10:32:33;;;;;;;;;1.75;1.00;;;;;4.75;67.23;102633.44;5063043;28;45378;-81
2022/01/16 10:35:11;;;;;;;;;0.00;0.00;;;;;4.51;66.94;102552.03;5050567;28;45671;-85
2022/01/16 10:37:38;;;;;;;;;4.00;1.50;;;;;4.71;66.70;102585.91;5087018;28;45606;-88
2022/01/16 10:40:14;;;;;;;;;1.00;1.00;;;;;4.80;66.55;102591.66;5072041;28;45588;-87
2022/01/16 10:42:40;;;;;;;;;1.00;1.00;;;;;4.64;66.05;102545.94;5085259;28;45608;-85
2022/01/16 10:45:12;;;;;;;;;2.00;1.00;;;;;4.99;65.97;102592.78;5083198;27;45404;-82
2022/01/16 10:47:43;;;;;;;;;1.75;1.00;;;;;5.03;65.68;102610.22;5064160;28;48052;-82
2022/01/16 10:50:12;;;;;;;;;2.25;1.00;;;;;5.23;66.26;102628.66;5083603;28;45445;-84
2022/01/16 10:53:05;;;;;;;;;0.00;0.00;;;;;5.38;65.21;102636.44;5082094;28;45535;-84
2022/01/16 10:55:44;;;;;;;;;3.00;1.50;;;;;5.29;65.25;102598.03;5047123;28;45507;-81
2022/01/16 10:58:50;;;;;;;;;1.75;1.25;;;;;5.39;64.87;102585.69;5067170;28;46992;-81
2022/01/16 11:01:18;;;;;;;;;1.75;1.75;;;;;5.67;64.94;102619.19;5080695;28;45276;-82
2022/01/16 11:03:53;;;;;;;;;0.50;0.50;;;;;5.70;64.96;102623.69;5079614;28;45412;-84
2022/01/16 11:06:21;;;;;;;;;1.75;1.75;;;;;5.53;65.03;102597.72;5080380;28;45596;-83
2022/01/16 11:08:57;;;;;;;;;1.00;1.00;;;;;5.86;64.62;102625.47;5082459;28;45390;-85
2022/01/16 11:11:27;;;;;;;;;1.50;1.50;;;;;5.81;64.52;102621.72;5082768;27;45303;-84
2022/01/16 11:13:54;;;;;;;;;1.75;1.00;;;;;5.67;64.48;102614.03;5080023;27;45413;-83
2022/01/16 11:16:22;;;;;;;;;1.00;1.00;;;;;5.62;64.42;102606.81;5082340;28;45541;-84
2022/01/16 11:18:49;;;;;;;;;1.00;1.00;;;;;5.52;64.87;102589.88;5069340;28;46154;-82
2022/01/16 11:21:20;;;;;;;;;0.75;0.00;;;;;5.78;64.98;102619.84;5081076;28;45415;-82
2022/01/16 11:26:16;;;;;;;;;4.75;2.75;;;;;5.52;65.28;102603.72;5082306;27;45559;-83
2022/01/16 11:28:42;;;;;;;;;0.00;0.00;;;;;5.53;64.91;102608.06;5080489;28;48447;-84
2022/01/16 11:31:10;;;;;;;;;1.00;1.00;;;;;5.48;65.04;102590.50;5082563;28;45476;-82
2022/01/16 11:33:37;;;;;;;;;3.75;1.00;;;;;5.58;65.22;102623.84;5082291;27;45330;-81
2022/01/16 11:36:08;;;;;;;;;1.00;1.00;;;;;5.48;65.17;102618.94;5074046;28;45298;-83
2022/01/16 11:38:41;;;;;;;;;2.00;1.00;;;;;5.39;65.18;102625.31;5063286;28;47361;-82
2022/01/16 11:41:25;;;;;;;;;1.00;1.00;;;;;4.80;65.54;102562.34;5078977;28;45477;-82
2022/01/16 11:43:53;;;;;;;;;1.00;1.00;;;;;4.77;65.41;102598.28;5043394;28;45419;-83
2022/01/16 11:46:26;;;;;;;;;1.00;1.00;;;;;4.84;65.95;102634.00;5043145;28;45449;-83
2022/01/16 11:49:01;;;;;;;;;3.00;1.00;;;;;4.81;67.01;102628.69;5056932;28;46423;-82
2022/01/16 11:51:36;;;;;;;;;0.75;0.75;;;;;4.78;66.57;102620.75;5041328;28;45434;-82
2022/01/16 11:54:01;;;;;;;;;2.75;2.00;;;;;4.68;66.56;102622.72;5041826;28;45498;-82
2022/01/16 11:59:10;;;;;;;;;2.75;1.00;;;;;4.59;67.02;102616.09;5073267;28;46212;-82
2022/01/16 12:01:55;;;;;;;;;0.75;0.75;;;;;4.22;67.37;102553.63;5079663;28;45573;-81
2022/01/16 12:04:29;;;;;;;;;3.00;2.25;;;;;4.68;67.15;102612.41;5063169;28;45404;-82
2022/01/16 12:07:00;;;;;;;;;2.25;1.00;;;;;4.67;67.53;102608.06;5081907;28;45794;-81
2022/01/16 12:09:58;;;;;;;;;6.25;2.00;;;;;4.78;67.95;102615.56;5081151;28;45410;-81
2022/01/16 12:12:23;;;;;;;;;1.00;1.00;;;;;4.73;67.97;102616.97;5069480;28;45431;-80
2022/01/16 12:14:52;;;;;;;;;2.00;2.00;;;;;4.41;67.96;102571.16;5078925;28;45378;-80
2022/01/16 12:17:24;;;;;;;;;1.25;1.25;;;;;4.61;67.73;102614.50;5081419;28;45478;-80
2022/01/16 12:19:50;;;;;;;;;0.00;0.00;;;;;4.23;68.55;102570.00;5078341;28;45805;-79
2022/01/16 12:22:18;;;;;;;;;1.25;1.25;;;;;4.49;67.89;102617.19;5078950;28;45417;-80
2022/01/16 12:24:47;;;;;;;;;0.75;0.75;;;;;4.48;68.39;102616.31;5077899;28;45642;-80